Time;durP1;ratioP1;P1;durP2;ratioP2;P2;SDS_P1;SDS_P2;PMS_P1;PMS_P2;Temp;Humidity;BMP_temperature;BMP_pressure;BME280_temperature;BME280_humidity;BME280_pressure;Samples;Min_cycle;Max_cycle;Signal;HPM_P1;HPM_P2
2021/10/30 00:00:01;;;;;;;0.00;0.00;;;;;;;9.80;80.78;99867.09;5030357;28;20029;-77
2021/10/30 00:02:26;;;;;;;0.00;0.00;;;;;;;9.82;80.82;99872.22;5022446;28;20029;-76
2021/10/30 00:04:52;;;;;;;0.00;0.00;;;;;;;9.82;80.29;99873.00;5010541;28;20025;-74
2021/10/30 00:07:18;;;;;;;0.20;0.20;;;;;;;9.81;80.98;99871.38;5021502;28;20037;-81
2021/10/30 00:09:44;;;;;;;0.00;0.00;;;;;;;9.81;80.89;99865.25;5029521;28;20037;-74
2021/10/30 00:12:10;;;;;;;0.00;0.00;;;;;;;9.71;80.98;99849.91;5030844;28;20518;-72
2021/10/30 00:14:37;;;;;;;0.35;0.35;;;;;;;9.84;80.68;99860.22;5029972;28;20027;-74
2021/10/30 00:17:02;;;;;;;0.00;0.00;;;;;;;9.84;80.58;99865.56;5029299;28;20040;-74
2021/10/30 00:19:28;;;;;;;0.00;0.00;;;;;;;9.86;80.89;99867.97;5028595;28;20033;-73
2021/10/30 00:21:53;;;;;;;0.00;0.00;;;;;;;9.81;81.03;99847.34;5029858;28;20041;-76
2021/10/30 00:24:19;;;;;;;0.00;0.00;;;;;;;9.80;80.76;99845.72;5029236;28;20028;-73
2021/10/30 00:26:45;;;;;;;0.08;0.08;;;;;;;9.78;80.73;99834.50;5030665;28;20466;-77
2021/10/30 00:29:10;;;;;;;0.22;0.22;;;;;;;9.84;80.65;99846.84;5029389;28;20033;-78
2021/10/30 00:31:36;;;;;;;0.10;0.10;;;;;;;9.77;80.44;99830.22;5028186;28;20417;-74
2021/10/30 00:34:01;;;;;;;0.30;0.30;;;;;;;9.80;80.49;99837.72;5030204;28;20031;-74
2021/10/30 00:36:26;;;;;;;0.50;0.50;;;;;;;9.88;80.30;99855.19;5030024;28;20551;-74
2021/10/30 00:38:52;;;;;;;0.15;0.15;;;;;;;9.88;80.25;99850.63;5028938;28;20091;-74
2021/10/30 00:41:18;;;;;;;0.00;0.00;;;;;;;9.86;80.66;99841.25;5030538;28;20083;-76
2021/10/30 00:43:44;;;;;;;0.00;0.00;;;;;;;9.87;80.66;99842.88;5029198;28;20029;-80
2021/10/30 00:46:09;;;;;;;0.00;0.00;;;;;;;9.82;80.50;99837.47;5029463;28;20029;-78
2021/10/30 00:48:35;;;;;;;0.00;0.00;;;;;;;9.83;80.83;99842.56;5028730;28;20037;-76
2021/10/30 00:51:05;;;;;;;1.85;0.45;;;;;;;9.83;80.66;99841.78;5027296;28;20033;-75
2021/10/30 00:53:32;;;;;;;0.00;0.00;;;;;;;9.83;81.21;99847.91;5033588;28;20528;-74
2021/10/30 00:56:03;;;;;;;0.00;0.00;;;;;;;9.83;80.70;99837.22;5035926;28;20249;-76
2021/10/30 00:58:33;;;;;;;0.55;0.55;;;;;;;9.82;80.66;99837.47;5035060;28;20086;-74
2021/10/30 01:00:59;;;;;;;0.90;0.90;;;;;;;9.84;80.60;99840.69;5035441;28;20052;-71
2021/10/30 01:03:25;;;;;;;0.00;0.00;;;;;;;9.89;80.38;99846.91;5036881;28;20025;-74
2021/10/30 01:05:51;;;;;;;0.38;0.38;;;;;;;9.89;80.31;99849.56;5037105;28;20025;-73
2021/10/30 01:08:18;;;;;;;0.20;0.20;;;;;;;9.93;80.01;99842.66;5036751;28;20478;-76
2021/10/30 01:10:45;;;;;;;0.00;0.00;;;;;;;9.87;80.24;99824.97;5035551;28;20651;-73
2021/10/30 01:13:10;;;;;;;0.00;0.00;;;;;;;10.04;80.29;99845.44;5036859;28;20042;-73
2021/10/30 01:15:36;;;;;;;0.00;0.00;;;;;;;10.01;80.06;99848.63;5036819;28;20028;-74
2021/10/30 01:18:01;;;;;;;0.10;0.10;;;;;;;10.01;80.27;99845.94;5037015;28;20402;-76
2021/10/30 01:20:26;;;;;;;1.35;0.50;;;;;;;10.01;79.71;99845.94;5035282;28;20033;-75
2021/10/30 01:23:02;;;;;;;0.10;0.10;;;;;;;10.01;79.79;99846.75;5052107;28;20481;-75
2021/10/30 01:25:28;;;;;;;0.00;0.00;;;;;;;9.99;80.43;99838.19;5036267;28;20413;-77
2021/10/30 01:27:55;;;;;;;0.30;0.30;;;;;;;9.96;80.28;99835.22;5035666;28;20064;-74
2021/10/30 01:30:22;;;;;;;0.10;0.10;;;;;;;9.90;80.44;99821.00;5036655;28;20033;-73
2021/10/30 01:33:01;;;;;;;0.00;0.00;;;;;;;9.98;80.38;99836.56;5035018;28;20064;-74
2021/10/30 01:35:28;;;;;;;0.38;0.38;;;;;;;9.95;80.26;99839.75;5037065;28;20029;-74
2021/10/30 01:37:55;;;;;;;0.00;0.00;;;;;;;9.93;80.26;99833.84;5035189;28;20383;-77
2021/10/30 01:40:21;;;;;;;0.30;0.30;;;;;;;9.90;79.52;99829.81;5034959;28;20032;-75
2021/10/30 01:43:01;;;;;;;2.08;1.02;;;;;;;9.99;80.10;99843.53;5034903;28;20104;-76
2021/10/30 01:45:27;;;;;;;0.25;0.25;;;;;;;9.90;79.87;99832.50;5032259;28;20035;-75
2021/10/30 01:47:53;;;;;;;0.03;0.03;;;;;;;9.89;79.67;99830.09;5035712;28;20401;-76
2021/10/30 01:50:19;;;;;;;0.10;0.10;;;;;;;9.94;79.81;99838.94;5035128;28;20029;-77
2021/10/30 01:52:45;;;;;;;1.15;0.75;;;;;;;9.97;79.56;99832.28;5034378;28;20056;-76
2021/10/30 01:55:12;;;;;;;0.00;0.00;;;;;;;9.87;79.43;99826.84;5036115;28;20037;-74
2021/10/30 01:57:38;;;;;;;0.00;0.00;;;;;;;9.89;79.46;99830.09;5036464;28;20478;-74
2021/10/30 02:00:06;;;;;;;0.00;0.00;;;;;;;9.89;79.57;99827.41;5036219;28;20104;-73
2021/10/30 02:02:32;;;;;;;0.00;0.00;;;;;;;9.88;79.59;99826.59;5035143;28;20065;-73
2021/10/30 02:04:57;;;;;;;0.00;0.00;;;;;;;9.94;79.14;99838.13;5033366;28;20462;-74
2021/10/30 02:07:23;;;;;;;0.10;0.10;;;;;;;9.92;79.25;99829.56;5032617;28;20037;-73
2021/10/30 02:09:48;;;;;;;0.00;0.00;;;;;;;9.70;79.15;99798.34;5032989;28;20113;-74
2021/10/30 02:12:14;;;;;;;0.10;0.10;;;;;;;9.90;79.51;99823.69;5032865;28;20053;-75
2021/10/30 02:14:39;;;;;;;0.00;0.00;;;;;;;9.83;78.76;99820.41;5031849;28;20027;-73
2021/10/30 02:17:04;;;;;;;0.30;0.30;;;;;;;9.91;78.82;99835.97;5031142;28;20036;-75
2021/10/30 02:19:30;;;;;;;0.20;0.20;;;;;;;9.87;79.22;99837.53;5031584;28;20551;-77
2021/10/30 02:21:55;;;;;;;0.45;0.45;;;;;;;9.84;79.46;99833.50;5031779;28;20037;-77
2021/10/30 02:24:21;;;;;;;0.00;0.00;;;;;;;9.85;79.50;99836.97;5030805;28;20053;-77
2021/10/30 02:26:46;;;;;;;0.10;0.10;;;;;;;9.86;79.58;99842.06;5031301;28;20033;-77
2021/10/30 02:29:12;;;;;;;0.00;0.00;;;;;;;9.87;79.29;99841.00;5032885;28;20490;-79
2021/10/30 02:31:37;;;;;;;0.00;0.00;;;;;;;9.88;79.50;99837.28;5032320;28;20502;-77
2021/10/30 02:34:03;;;;;;;0.00;0.00;;;;;;;9.88;79.30;99837.28;5033096;28;20037;-76
2021/10/30 02:36:28;;;;;;;0.00;0.00;;;;;;;9.85;79.31;99831.63;5031749;28;20033;-74
2021/10/30 02:38:54;;;;;;;0.10;0.10;;;;;;;9.91;78.99;99844.78;5031006;28;20034;-74
2021/10/30 02:41:19;;;;;;;0.30;0.30;;;;;;;9.84;79.46;99832.69;5031581;28;20040;-77
2021/10/30 02:43:44;;;;;;;1.00;0.90;;;;;;;9.85;79.41;99842.31;5030952;28;20445;-76
2021/10/30 02:46:10;;;;;;;0.10;0.10;;;;;;;9.80;79.64;99834.25;5031791;28;20029;-75
2021/10/30 02:48:35;;;;;;;0.30;0.30;;;;;;;9.75;79.73;99835.81;5030371;28;20079;-75
2021/10/30 02:51:01;;;;;;;0.20;0.20;;;;;;;9.74;79.92;99838.72;5030961;28;20051;-74
2021/10/30 02:53:26;;;;;;;0.10;0.10;;;;;;;9.71;79.83;99845.38;5032783;28;20105;-75
2021/10/30 02:55:51;;;;;;;0.10;0.10;;;;;;;9.62;80.45;99836.22;5031123;28;20037;-75
2021/10/30 02:58:17;;;;;;;0.38;0.38;;;;;;;9.67;80.17;99844.28;5031320;28;20021;-76
2021/10/30 03:00:42;;;;;;;0.10;0.10;;;;;;;9.68;80.35;99848.56;5029866;28;20030;-77
2021/10/30 03:03:08;;;;;;;2.50;1.17;;;;;;;9.69;80.65;99852.03;5031501;28;20037;-76
2021/10/30 03:05:33;;;;;;;0.00;0.00;;;;;;;9.66;80.64;99836.50;5030455;28;20025;-76
2021/10/30 03:07:58;;;;;;;0.15;0.15;;;;;;;9.64;80.43;99833.28;5031067;28;20026;-77
2021/10/30 03:10:24;;;;;;;0.30;0.30;;;;;;;9.64;80.25;99836.75;5031048;28;20032;-76
2021/10/30 03:12:50;;;;;;;0.00;0.00;;;;;;;9.63;80.24;99837.81;5030875;28;20068;-76
2021/10/30 03:15:17;;;;;;;0.10;0.10;;;;;;;9.57;80.46;99834.28;5030691;28;20029;-75
2021/10/30 03:17:43;;;;;;;0.10;0.10;;;;;;;9.58;81.01;99845.75;5030097;28;20053;-76
2021/10/30 03:20:09;;;;;;;0.10;0.10;;;;;;;9.52;81.18;99847.56;5030650;28;20120;-76
2021/10/30 03:22:35;;;;;;;0.32;0.32;;;;;;;9.55;80.84;99849.72;5030593;28;20115;-75
2021/10/30 03:25:01;;;;;;;0.00;0.00;;;;;;;9.51;80.77;99842.47;5031106;28;20048;-75
2021/10/30 03:27:27;;;;;;;0.85;0.85;;;;;;;9.50;81.33;99847.00;5030971;28;20505;-76
2021/10/30 03:29:53;;;;;;;0.00;0.00;;;;;;;9.44;81.20;99840.78;5031109;28;20033;-72
2021/10/30 03:32:18;;;;;;;1.55;0.60;;;;;;;9.47;80.62;99842.16;5032010;28;20436;-73
2021/10/30 03:34:44;;;;;;;0.00;0.00;;;;;;;9.54;81.06;99855.34;5031952;28;20028;-72
2021/10/30 03:37:09;;;;;;;0.00;0.00;;;;;;;9.55;80.51;99851.59;5030493;28;20022;-72
2021/10/30 03:39:36;;;;;;;0.43;0.43;;;;;;;9.54;80.73;99855.34;5030195;28;20387;-72
2021/10/30 03:42:03;;;;;;;0.00;0.00;;;;;;;9.52;80.28;99852.09;5029801;28;20033;-72
2021/10/30 03:44:28;;;;;;;0.00;0.00;;;;;;;9.55;80.71;99851.59;5030745;28;20036;-73
2021/10/30 03:46:54;;;;;;;0.10;0.10;;;;;;;9.50;80.83;99839.00;5027581;28;20021;-76
2021/10/30 03:49:19;;;;;;;0.08;0.08;;;;;;;9.39;80.88;99832.72;5030628;28;20029;-74
2021/10/30 03:51:45;;;;;;;0.40;0.25;;;;;;;9.46;80.62;99840.56;5031124;28;20039;-76
2021/10/30 03:54:10;;;;;;;0.32;0.32;;;;;;;9.46;81.00;99837.91;5029609;28;20045;-75
2021/10/30 03:56:36;;;;;;;0.30;0.30;;;;;;;9.48;80.41;99849.13;5030453;28;20049;-76
2021/10/30 03:59:02;;;;;;;3.63;0.63;;;;;;;9.45;80.93;99849.63;5029938;28;20033;-91
2021/10/30 04:01:27;;;;;;;0.10;0.10;;;;;;;9.38;80.99;99844.47;5029376;28;20036;-75
2021/10/30 04:03:52;;;;;;;0.00;0.00;;;;;;;9.38;81.13;99852.47;5029532;28;20033;-75
2021/10/30 04:06:18;;;;;;;0.43;0.43;;;;;;;9.40;81.16;99855.69;5030329;28;20044;-75
2021/10/30 04:08:44;;;;;;;0.03;0.03;;;;;;;9.42;80.89;99848.25;5029191;28;20037;-75
2021/10/30 04:11:10;;;;;;;0.00;0.00;;;;;;;9.33;80.63;99839.06;5026941;28;20414;-75
2021/10/30 04:13:35;;;;;;;0.00;0.00;;;;;;;9.41;81.16;99856.50;5011748;28;20057;-75
2021/10/30 04:16:01;;;;;;;0.20;0.20;;;;;;;9.40;80.66;99857.56;5025985;28;20029;-75
2021/10/30 04:18:26;;;;;;;0.10;0.10;;;;;;;9.40;80.82;99852.25;5030555;28;20029;-73
2021/10/30 04:20:51;;;;;;;0.38;0.38;;;;;;;9.40;81.26;99855.69;5031110;28;20036;-75
2021/10/30 04:23:17;;;;;;;0.00;0.00;;;;;;;9.41;80.67;99851.97;5029818;28;20087;-76
2021/10/30 04:25:42;;;;;;;0.73;0.73;;;;;;;9.48;80.42;99861.66;5029118;28;20029;-76
2021/10/30 04:28:08;;;;;;;0.10;0.10;;;;;;;9.51;80.22;99861.16;5028905;28;20033;-77
2021/10/30 04:30:34;;;;;;;0.03;0.03;;;;;;;9.58;79.98;99867.13;5029200;28;20032;-74
2021/10/30 04:33:00;;;;;;;1.00;1.00;;;;;;;9.55;79.63;99859.63;5045431;28;20486;-73
2021/10/30 04:35:25;;;;;;;0.55;0.22;;;;;;;9.59;79.82;99864.22;5030652;28;20115;-72
2021/10/30 04:37:51;;;;;;;0.00;0.00;;;;;;;9.60;79.17;99870.34;5030806;28;20026;-72
2021/10/30 04:40:17;;;;;;;0.30;0.20;;;;;;;9.53;78.73;99861.72;5030546;28;20029;-73
2021/10/30 04:42:42;;;;;;;0.38;0.10;;;;;;;9.51;78.40;99877.19;5029702;28;20025;-74
2021/10/30 04:45:08;;;;;;;0.10;0.10;;;;;;;9.54;78.79;99871.34;5028825;28;20494;-74
2021/10/30 04:47:34;;;;;;;0.00;0.00;;;;;;;9.48;78.75;99869.69;5028977;28;20516;-74
2021/10/30 04:49:59;;;;;;;0.32;0.32;;;;;;;9.44;77.81;99880.03;5028646;28;20057;-73
2021/10/30 04:52:25;;;;;;;0.00;0.00;;;;;;;9.35;78.19;99877.00;5025273;28;20492;-73
2021/10/30 04:54:51;;;;;;;0.00;0.00;;;;;;;9.33;78.79;99875.63;5017500;28;20553;-73
2021/10/30 04:57:16;;;;;;;0.45;0.45;;;;;;;9.09;78.70;99849.16;5009215;28;20080;-74
2021/10/30 04:59:42;;;;;;;0.20;0.20;;;;;;;9.23;78.20;99881.66;5018795;28;20042;-74
2021/10/30 05:02:08;;;;;;;0.10;0.10;;;;;;;9.16;78.66;99875.69;5017404;28;20038;-74
2021/10/30 05:04:34;;;;;;;0.73;0.73;;;;;;;9.19;78.55;99883.16;5017022;28;20026;-73
2021/10/30 05:06:59;;;;;;;0.68;0.35;;;;;;;9.18;77.99;99879.72;5027192;28;20032;-73
2021/10/30 05:09:25;;;;;;;0.00;0.00;;;;;;;9.11;77.79;99879.88;5026812;28;20466;-72
2021/10/30 05:11:51;;;;;;;0.43;0.43;;;;;;;9.10;77.98;99872.13;5010331;28;20041;-72
2021/10/30 05:14:16;;;;;;;0.38;0.38;;;;;;;9.16;77.54;99881.00;5014698;28;20403;-74
2021/10/30 05:16:42;;;;;;;0.05;0.05;;;;;;;9.15;77.58;99876.72;5014818;28;20029;-74
2021/10/30 05:19:07;;;;;;;0.10;0.10;;;;;;;9.20;77.24;99882.91;5014817;28;20037;-74
2021/10/30 05:21:33;;;;;;;0.00;0.00;;;;;;;9.20;77.36;99882.91;5010190;28;20025;-73
2021/10/30 05:23:58;;;;;;;0.20;0.20;;;;;;;9.24;76.77;99884.06;5012372;28;20475;-72
2021/10/30 05:26:24;;;;;;;0.15;0.15;;;;;;;9.16;76.25;99876.47;5015127;28;20029;-77
2021/10/30 05:28:52;;;;;;;0.52;0.52;;;;;;;9.19;76.36;99881.34;5028092;28;20051;-75
2021/10/30 05:31:18;;;;;;;0.00;0.00;;;;;;;9.21;77.10;99881.06;5028957;28;20071;-75
2021/10/30 05:33:43;;;;;;;0.00;0.00;;;;;;;9.19;76.42;99881.34;5026930;28;20041;-75
2021/10/30 05:36:10;;;;;;;1.23;1.08;;;;;;;9.24;76.64;99884.06;5028774;28;20033;-76
2021/10/30 05:38:37;;;;;;;0.15;0.15;;;;;;;9.26;76.24;99879.28;5029972;28;20091;-76
2021/10/30 05:41:04;;;;;;;0.10;0.10;;;;;;;9.29;76.13;99886.78;5032585;28;20029;-76
2021/10/30 05:43:30;;;;;;;0.70;0.35;;;;;;;9.34;75.95;99877.22;5032762;28;20037;-76
2021/10/30 05:45:56;;;;;;;0.00;0.00;;;;;;;9.34;75.60;99878.06;5032502;28;20383;-75
2021/10/30 05:48:21;;;;;;;0.00;0.00;;;;;;;9.36;75.66;99889.31;5032791;28;20033;-76
2021/10/30 05:50:47;;;;;;;1.38;0.47;;;;;;;9.38;75.46;99875.69;5031668;28;20018;-75
2021/10/30 05:53:12;;;;;;;0.40;0.40;;;;;;;9.43;75.56;99886.44;5032171;28;20132;-76
2021/10/30 05:55:38;;;;;;;0.00;0.00;;;;;;;9.38;75.03;99876.50;5031421;28;20100;-75
2021/10/30 05:58:03;;;;;;;0.00;0.00;;;;;;;9.46;75.19;99883.28;5031739;28;20035;-75
2021/10/30 06:00:29;;;;;;;0.00;0.00;;;;;;;9.51;74.63;99882.50;5049019;28;20398;-74
2021/10/30 06:02:56;;;;;;;0.13;0.13;;;;;;;9.55;74.37;99891.66;5031601;28;20029;-76
2021/10/30 06:05:22;;;;;;;0.52;0.52;;;;;;;9.51;74.23;99874.50;5031566;28;20040;-75
2021/10/30 06:07:47;;;;;;;0.10;0.10;;;;;;;9.61;74.85;99896.81;5031838;28;20030;-78
2021/10/30 06:10:13;;;;;;;1.58;1.20;;;;;;;9.61;73.69;99894.13;5031816;28;20056;-77
2021/10/30 06:12:40;;;;;;;0.90;0.75;;;;;;;9.59;73.63;99898.13;5031862;28;20044;-77
2021/10/30 06:15:09;;;;;;;0.32;0.32;;;;;;;9.58;73.87;99896.50;5031588;28;20486;-77
2021/10/30 06:17:35;;;;;;;0.03;0.03;;;;;;;9.60;74.32;99902.41;5031763;28;20120;-76
2021/10/30 06:20:01;;;;;;;0.10;0.10;;;;;;;9.68;74.29;99907.31;5033068;28;20060;-75
2021/10/30 06:22:27;;;;;;;0.05;0.05;;;;;;;9.68;74.39;99901.97;5033024;28;20068;-75
2021/10/30 06:24:52;;;;;;;1.13;0.45;;;;;;;9.70;74.02;99899.84;5048217;28;20057;-72
2021/10/30 06:27:18;;;;;;;0.68;0.68;;;;;;;9.75;74.11;99897.25;5033089;28;20079;-75
2021/10/30 06:29:43;;;;;;;0.35;0.35;;;;;;;9.76;74.11;99890.84;5033362;28;20028;-73
2021/10/30 06:32:08;;;;;;;0.20;0.20;;;;;;;9.88;73.57;99911.28;5032766;28;20037;-72
2021/10/30 06:34:34;;;;;;;0.00;0.00;;;;;;;9.94;73.58;99916.41;5032984;28;20115;-72
2021/10/30 06:36:59;;;;;;;0.38;0.32;;;;;;;9.94;73.40;99915.63;5032319;28;20037;-72
2021/10/30 06:39:25;;;;;;;1.25;0.52;;;;;;;9.99;74.07;99917.56;5032128;28;20033;-73
2021/10/30 06:41:50;;;;;;;0.10;0.10;;;;;;;9.90;73.56;99901.97;5032264;28;20021;-74
2021/10/30 06:44:17;;;;;;;0.68;0.68;;;;;;;10.02;73.48;99912.53;5031819;28;20473;-74
2021/10/30 06:46:43;;;;;;;0.00;0.00;;;;;;;10.02;73.44;99906.34;5031977;28;20108;-74
2021/10/30 06:49:11;;;;;;;0.00;0.00;;;;;;;10.08;73.17;99906.16;5032733;28;20143;-75
2021/10/30 06:51:39;;;;;;;0.00;0.00;;;;;;;10.21;73.15;99915.63;5032150;28;20029;-75
2021/10/30 06:54:05;;;;;;;0.00;0.00;;;;;;;10.27;72.87;99919.19;5030980;28;20040;-73
2021/10/30 06:56:36;;;;;;;0.00;0.00;;;;;;;10.22;73.49;99908.44;5032799;28;20037;-74
2021/10/30 06:59:05;;;;;;;1.08;0.85;;;;;;;10.30;72.86;99915.19;5031985;28;20040;-74
2021/10/30 07:01:33;;;;;;;0.17;0.17;;;;;;;10.23;72.63;99900.16;5032052;28;20061;-75
2021/10/30 07:03:59;;;;;;;0.10;0.10;;;;;;;10.24;72.86;99908.97;5030849;28;20033;-73
2021/10/30 07:06:25;;;;;;;0.10;0.10;;;;;;;10.33;73.01;99915.50;5031740;28;20044;-72
2021/10/30 07:08:50;;;;;;;0.10;0.10;;;;;;;10.27;72.51;99913.03;5031852;28;20030;-73
2021/10/30 07:11:16;;;;;;;0.10;0.10;;;;;;;10.36;73.03;99928.41;5032073;28;20025;-71
2021/10/30 07:13:41;;;;;;;0.73;0.73;;;;;;;10.29;73.44;99911.72;5028156;28;20589;-72
2021/10/30 07:16:07;;;;;;;0.00;0.00;;;;;;;10.36;73.15;99914.19;5016513;28;20037;-73
2021/10/30 07:18:32;;;;;;;0.43;0.43;;;;;;;10.33;73.06;99918.16;5012427;28;20057;-78
2021/10/30 07:20:57;;;;;;;0.00;0.00;;;;;;;10.34;73.06;99908.28;5019911;28;20107;-75
2021/10/30 07:23:23;;;;;;;0.00;0.00;;;;;;;10.37;73.35;99918.50;5025997;28;20108;-76
2021/10/30 07:25:49;;;;;;;0.00;0.00;;;;;;;10.39;73.04;99913.72;5018941;28;20038;-76
2021/10/30 07:28:15;;;;;;;0.22;0.22;;;;;;;10.41;73.32;99916.94;5018856;28;20080;-77
2021/10/30 07:30:40;;;;;;;0.00;0.00;;;;;;;10.43;73.77;99916.69;5016584;28;20029;-73
2021/10/30 07:33:06;;;;;;;0.00;0.00;;;;;;;10.35;73.37;99905.38;5012086;28;20320;-72
2021/10/30 07:35:31;;;;;;;0.25;0.25;;;;;;;10.41;72.79;99914.25;5010254;28;20049;-70
2021/10/30 07:38:00;;;;;;;1.08;1.08;;;;;;;10.37;72.65;99910.47;5011413;28;20403;-71
2021/10/30 07:40:28;;;;;;;0.35;0.35;;;;;;;10.36;73.17;99917.72;5026683;28;20034;-76
2021/10/30 07:42:55;;;;;;;0.10;0.10;;;;;;;10.31;73.08;99904.25;5029184;28;20033;-73
2021/10/30 07:45:20;;;;;;;3.30;1.65;;;;;;;10.27;73.33;99899.69;5030379;28;20037;-72
2021/10/30 07:47:47;;;;;;;0.50;0.50;;;;;;;10.39;73.34;99914.50;5046506;28;20018;-73
2021/10/30 07:50:13;;;;;;;0.20;0.20;;;;;;;10.38;73.00;99912.91;5030199;28;20067;-72
2021/10/30 07:52:38;;;;;;;1.00;0.45;;;;;;;10.32;73.36;99908.53;5027305;28;20061;-73
2021/10/30 07:55:05;;;;;;;0.32;0.32;;;;;;;10.31;73.61;99911.47;5026829;28;20037;-76
2021/10/30 07:57:31;;;;;;;0.00;0.00;;;;;;;10.34;74.06;99913.63;5029052;28;20091;-84
2021/10/30 07:59:56;;;;;;;0.10;0.10;;;;;;;10.38;73.83;99920.91;5028853;28;20025;-77
2021/10/30 08:02:22;;;;;;;1.20;0.65;;;;;;;10.39;73.57;99906.50;5030219;28;20025;-75
2021/10/30 08:04:47;;;;;;;0.40;0.32;;;;;;;10.45;73.91;99906.53;5046351;28;20032;-76
2021/10/30 08:07:13;;;;;;;0.10;0.10;;;;;;;10.52;73.52;99905.28;5046377;28;20553;-77
2021/10/30 08:09:42;;;;;;;0.00;0.00;;;;;;;10.49;73.45;99892.41;5029561;28;20032;-76
2021/10/30 08:12:10;;;;;;;0.30;0.30;;;;;;;10.56;72.93;99910.94;5028517;28;20641;-73
2021/10/30 08:14:35;;;;;;;0.25;0.25;;;;;;;10.62;72.90;99907.25;5029940;28;20021;-73
2021/10/30 08:17:00;;;;;;;0.10;0.10;;;;;;;10.62;72.96;99899.22;5031172;28;20422;-74
2021/10/30 08:19:26;;;;;;;0.10;0.10;;;;;;;10.58;72.80;99892.75;5027887;28;20499;-72
2021/10/30 08:21:51;;;;;;;0.30;0.30;;;;;;;10.69;72.52;99907.84;5030516;28;20029;-75
2021/10/30 08:24:17;;;;;;;1.10;1.10;;;;;;;10.69;72.58;99899.81;5029517;28;20545;-75
2021/10/30 08:26:42;;;;;;;0.22;0.22;;;;;;;10.79;71.62;99907.09;5031055;28;20061;-73
2021/10/30 08:29:08;;;;;;;0.00;0.00;;;;;;;10.78;72.12;99889.44;5030575;28;20037;-73
2021/10/30 08:31:34;;;;;;;0.00;0.00;;;;;;;10.81;71.99;99878.19;5030850;28;20029;-75
2021/10/30 08:34:00;;;;;;;0.43;0.43;;;;;;;10.93;72.48;99891.41;5027911;28;20037;-74
2021/10/30 08:36:27;;;;;;;0.00;0.00;;;;;;;10.99;71.82;99893.06;5029232;28;20033;-75
2021/10/30 08:38:53;;;;;;;0.45;0.45;;;;;;;10.99;72.45;99885.03;5030653;28;20061;-74
2021/10/30 08:41:19;;;;;;;0.10;0.10;;;;;;;11.03;71.89;99883.47;5030915;28;20025;-71
2021/10/30 08:43:45;;;;;;;0.00;0.00;;;;;;;11.16;71.65;99890.22;5030791;28;20029;-70
2021/10/30 08:46:13;;;;;;;1.05;0.57;;;;;;;11.24;71.57;99888.91;5030740;28;20048;-73
2021/10/30 08:48:39;;;;;;;0.22;0.22;;;;;;;11.24;70.62;99880.09;5030130;28;20120;-71
2021/10/30 08:51:04;;;;;;;0.17;0.17;;;;;;;11.32;70.96;99882.28;5030604;28;20100;-71
2021/10/30 08:53:30;;;;;;;1.13;1.08;;;;;;;11.44;70.88;99887.44;5030906;28;20479;-77
2021/10/30 08:55:58;;;;;;;0.20;0.20;;;;;;;11.45;71.23;99865.72;5029383;28;20032;-73
2021/10/30 08:58:27;;;;;;;0.30;0.30;;;;;;;11.49;70.12;99864.13;5030912;28;20038;-73
2021/10/30 09:00:56;;;;;;;0.20;0.20;;;;;;;11.59;70.36;99859.88;5029990;28;20064;-74
2021/10/30 09:03:21;;;;;;;;;;;;;;;11.76;70.54;99870.41;5031306;28;20037;-73
2021/10/30 09:05:50;;;;;;;0.00;0.00;;;;;;;11.82;69.95;99872.03;5030238;28;19920;-73
2021/10/30 09:08:18;;;;;;;0.35;0.35;;;;;;;11.84;70.18;99864.53;5030438;28;20113;-73
2021/10/30 09:10:47;;;;;;;0.40;0.40;;;;;;;11.89;70.31;99859.19;5030786;28;20026;-73
2021/10/30 09:13:14;;;;;;;0.00;0.00;;;;;;;12.02;69.77;99857.88;5030255;28;20041;-73
2021/10/30 09:15:42;;;;;;;0.10;0.10;;;;;;;12.01;69.40;99862.44;5034082;28;20038;-74
2021/10/30 09:18:34;;;;;;;0.10;0.10;;;;;;;12.12;69.64;99860.59;5049797;28;20039;-75
2021/10/30 09:21:02;;;;;;;0.08;0.08;;;;;;;12.17;69.17;99865.97;5034097;28;20116;-74
2021/10/30 09:23:29;;;;;;;0.00;0.00;;;;;;;12.20;69.44;99861.16;5032846;28;20030;-74
2021/10/30 09:26:07;;;;;;;0.20;0.20;;;;;;;12.13;69.13;99842.63;5033052;28;20029;-74
2021/10/30 09:28:38;;;;;;;1.10;0.80;;;;;;;12.27;68.85;99854.44;5014666;28;20509;-79
2021/10/30 09:31:11;;;;;;;5.38;1.20;;;;;;;12.27;68.67;99850.97;5014530;28;20033;-74
2021/10/30 09:33:58;;;;;;;0.70;0.52;;;;;;;12.41;69.22;99854.69;5013395;28;20662;-72
2021/10/30 09:36:38;;;;;;;0.47;0.47;;;;;;;12.41;69.10;99840.50;5014686;28;20041;-73
2021/10/30 09:39:14;;;;;;;0.20;0.20;;;;;;;12.52;68.38;99842.09;5033608;28;20029;-73
2021/10/30 09:41:42;;;;;;;0.00;0.00;;;;;;;12.57;67.82;99842.13;5034219;28;20029;-72
2021/10/30 09:44:21;;;;;;;0.20;0.20;;;;;;;12.54;67.70;99821.19;5032469;28;20026;-72
2021/10/30 09:46:46;;;;;;;0.00;0.00;;;;;;;12.65;67.60;99840.75;5034289;28;20056;-73
2021/10/30 09:49:13;;;;;;;0.10;0.10;;;;;;;12.65;67.79;99828.13;5033555;28;20072;-72
2021/10/30 09:51:39;;;;;;;0.45;0.45;;;;;;;12.73;67.04;99831.34;5034184;28;20032;-72
2021/10/30 09:54:08;;;;;;;0.00;0.00;;;;;;;12.71;67.38;99817.41;5033858;28;20453;-72
2021/10/30 09:56:46;;;;;;;;;;;;;;;12.84;67.47;99822.22;5034519;28;20131;-71
2021/10/30 09:59:16;;;;;;;0.15;0.15;;;;;;;12.90;67.27;99820.31;5033334;28;19920;-73
2021/10/30 10:01:49;;;;;;;0.00;0.00;;;;;;;12.90;66.54;99820.31;5034110;28;20069;-73
2021/10/30 10:04:18;;;;;;;1.10;1.10;;;;;;;12.95;66.64;99812.22;5033874;28;20105;-74
2021/10/30 10:06:48;;;;;;;0.00;0.00;;;;;;;12.97;66.47;99815.47;5033378;28;20083;-72
2021/10/30 10:09:15;;;;;;;0.20;0.20;;;;;;;12.96;66.49;99820.03;5032133;28;20453;-73
2021/10/30 10:11:44;;;;;;;0.10;0.10;;;;;;;12.86;66.68;99803.94;5032476;28;20061;-71
2021/10/30 10:14:12;;;;;;;0.00;0.00;;;;;;;12.89;66.88;99799.91;5032644;28;20036;-73
2021/10/30 10:16:38;;;;;;;0.00;0.00;;;;;;;12.90;66.93;99801.50;5032456;28;20520;-73
2021/10/30 10:19:03;;;;;;;0.30;0.30;;;;;;;12.94;66.40;99805.28;5032750;28;20033;-71
2021/10/30 10:21:34;;;;;;;0.00;0.00;;;;;;;12.93;66.52;99795.63;5033132;28;20022;-71
2021/10/30 10:24:00;;;;;;;0.10;0.10;;;;;;;12.92;66.35;99797.47;5033178;28;20029;-72
2021/10/30 10:26:33;;;;;;;0.45;0.45;;;;;;;12.91;66.84;99795.88;5032542;28;20026;-72
2021/10/30 10:29:04;;;;;;;0.05;0.05;;;;;;;12.87;67.28;99778.72;5032799;28;20094;-73
2021/10/30 10:31:30;;;;;;;0.00;0.00;;;;;;;12.86;67.12;99779.00;5032084;28;20120;-72
2021/10/30 10:34:16;;;;;;;0.00;0.00;;;;;;;12.88;66.88;99784.91;5032939;28;20113;-73
2021/10/30 10:36:42;;;;;;;0.00;0.00;;;;;;;12.84;66.58;99775.75;5031621;28;20095;-73
2021/10/30 10:39:21;;;;;;;0.10;0.10;;;;;;;12.86;66.96;99782.47;5032815;28;20114;-73
2021/10/30 10:41:50;;;;;;;0.20;0.20;;;;;;;12.90;66.60;99790.78;5033042;28;20032;-73
2021/10/30 10:44:22;;;;;;;0.17;0.17;;;;;;;12.93;67.06;99782.97;5032893;28;20061;-73
2021/10/30 10:46:53;;;;;;;0.25;0.25;;;;;;;12.94;66.27;99781.13;5033324;28;20379;-72
2021/10/30 10:52:04;;;;;;;0.00;0.00;;;;;;;12.96;66.61;99782.44;5032759;28;20524;-73
2021/10/30 10:54:55;;;;;;;0.17;0.17;;;;;;;12.97;66.11;99784.06;5032694;28;20036;-73
2021/10/30 10:57:34;;;;;;;0.20;0.20;;;;;;;12.97;65.99;99773.31;5032637;28;20036;-71
2021/10/30 11:00:08;;;;;;;0.00;0.00;;;;;;;12.89;66.17;99757.78;5031825;28;20041;-71
2021/10/30 11:02:52;;;;;;;0.55;0.55;;;;;;;12.94;66.20;99770.38;5031755;28;20029;-75
2021/10/30 11:05:23;;;;;;;0.00;0.00;;;;;;;12.97;66.44;99767.13;5032472;28;20091;-74
2021/10/30 11:07:48;;;;;;;0.10;0.10;;;;;;;12.97;66.52;99765.28;5031308;28;20034;-73
2021/10/30 11:10:35;;;;;;;0.08;0.08;;;;;;;13.01;66.16;99754.78;5031060;28;20433;-75
2021/10/30 11:13:09;;;;;;;0.75;0.65;;;;;;;13.05;65.81;99745.09;5030993;28;20120;-73
2021/10/30 11:15:52;;;;;;;0.10;0.10;;;;;;;13.00;66.02;99729.00;5032513;28;20442;-74
2021/10/30 11:21:08;;;;;;;0.00;0.00;;;;;;;13.17;65.22;99735.91;5032127;28;20132;-72
2021/10/30 11:23:51;;;;;;;0.10;0.10;;;;;;;13.12;65.14;99717.94;5032316;28;20025;-74
2021/10/30 11:26:23;;;;;;;0.20;0.20;;;;;;;13.10;65.36;99704.00;5030898;28;20044;-73
2021/10/30 11:28:48;;;;;;;0.00;0.00;;;;;;;13.29;65.24;99718.38;5030898;28;20083;-76
2021/10/30 11:31:20;;;;;;;0.10;0.10;;;;;;;13.35;65.02;99729.09;5030737;28;20033;-76
2021/10/30 11:33:56;;;;;;;0.10;0.10;;;;;;;13.39;64.96;99714.06;5030933;28;20482;-78
2021/10/30 11:36:22;;;;;;;0.10;0.10;;;;;;;13.42;64.33;99714.31;5030299;28;20033;-76
2021/10/30 11:38:47;;;;;;;0.10;0.10;;;;;;;13.51;64.62;99716.41;5030037;28;20033;-76
2021/10/30 11:41:22;;;;;;;0.00;0.00;;;;;;;13.43;64.37;99707.84;5046967;28;20029;-75
2021/10/30 11:43:49;;;;;;;0.45;0.45;;;;;;;13.55;64.42;99712.88;5032006;28;20030;-75